Time;durP1;ratioP1;P1;durP2;ratioP2;P2;SDS_P1;SDS_P2;PMS_P1;PMS_P2;Temp;Humidity;BMP_temperature;BMP_pressure;BME280_temperature;BME280_humidity;BME280_pressure;Samples;Min_cycle;Max_cycle;Signal;HPM_P1;HPM_P2
2023/03/26 00:01:09;;;;;;;11.97;2.80;;;;;;;;;;5047529;28;20753;-64
2023/03/26 00:03:36;;;;;;;14.57;2.50;;;;;;;;;;5047662;28;20049;-64
2023/03/26 00:06:02;;;;;;;9.80;2.40;;;;;;;;;;5048910;28;20476;-64
2023/03/26 00:08:28;;;;;;;22.20;3.40;;;;;;;;;;5048656;28;20067;-64
2023/03/26 00:10:55;;;;;;;13.83;2.47;;;;;;;;;;5047999;28;20049;-64
2023/03/26 00:13:21;;;;;;;15.63;3.27;;;;;;;;;;5047620;28;20068;-64
2023/03/26 00:15:47;;;;;;;17.50;3.47;;;;;;;;;;5047314;28;20044;-64
2023/03/26 00:18:13;;;;;;;7.50;2.30;;;;;;;;;;5048717;28;20045;-64
2023/03/26 00:20:40;;;;;;;13.83;3.17;;;;;;;;;;5048663;28;20490;-64
2023/03/26 00:23:07;;;;;;;12.97;2.50;;;;;;;;;;5048441;28;20056;-64
2023/03/26 00:25:33;;;;;;;11.73;3.03;;;;;;;;;;5048571;28;20897;-64
2023/03/26 00:28:00;;;;;;;9.40;3.27;;;;;;;;;;5048469;28;20063;-63
2023/03/26 00:30:26;;;;;;;13.97;2.30;;;;;;;;;;5048943;28;20099;-64
2023/03/26 00:32:52;;;;;;;15.13;2.50;;;;;;;;;;5047012;28;20450;-63
2023/03/26 00:35:19;;;;;;;8.23;2.43;;;;;;;;;;5048571;28;20211;-64
2023/03/26 00:37:45;;;;;;;12.67;2.90;;;;;;;;;;5048646;28;20098;-64
2023/03/26 00:40:11;;;;;;;13.03;2.73;;;;;;;;;;5047511;28;20827;-64
2023/03/26 00:42:38;;;;;;;13.97;3.33;;;;;;;;;;5048321;28;20056;-65
2023/03/26 00:45:05;;;;;;;11.40;2.37;;;;;;;;;;5048480;28;20518;-63
2023/03/26 00:47:31;;;;;;;12.03;2.37;;;;;;;;;;5048402;28;20071;-63
2023/03/26 00:49:57;;;;;;;14.97;2.67;;;;;;;;;;5048983;28;20041;-63
2023/03/26 00:52:23;;;;;;;11.93;2.27;;;;;;;;;;5048269;28;20451;-64
2023/03/26 00:54:52;;;;;;;14.63;2.67;;;;;;;;;;5050668;28;20055;-63
2023/03/26 00:57:21;;;;;;;14.23;3.50;;;;;;;;;;5052097;28;20048;-64
2023/03/26 00:59:50;;;;;;;13.93;3.07;;;;;;;;;;5052242;28;20585;-64
2023/03/26 01:02:19;;;;;;;10.07;2.20;;;;;;;;;;5052370;28;20061;-64
2023/03/26 01:04:47;;;;;;;14.70;3.27;;;;;;;;;;5051432;28;20052;-63
2023/03/26 01:07:15;;;;;;;12.20;2.57;;;;;;;;;;5052422;28;20045;-64
2023/03/26 01:09:48;;;;;;;9.40;2.80;;;;;;;;;;5052145;28;20059;-64
2023/03/26 01:12:15;;;;;;;12.57;3.45;;;;;;;;;;5051811;28;20461;-64
2023/03/26 01:14:42;;;;;;;10.97;2.73;;;;;;;;;;5051707;28;20049;-64
2023/03/26 01:17:11;;;;;;;12.07;2.70;;;;;;;;;;5051851;28;20098;-64
2023/03/26 01:19:43;;;;;;;15.97;2.73;;;;;;;;;;5052103;28;20068;-64
2023/03/26 01:22:13;;;;;;;16.55;3.25;;;;;;;;;;5051861;28;20098;-63
2023/03/26 01:24:39;;;;;;;9.40;2.30;;;;;;;;;;5051616;28;20055;-64
2023/03/26 01:27:19;;;;;;;11.87;2.67;;;;;;;;;;5051491;28;20053;-63
2023/03/26 01:29:52;;;;;;;14.07;2.93;;;;;;;;;;5051102;28;20099;-63
2023/03/26 01:32:26;;;;;;;14.82;2.58;;;;;;;;;;5051560;28;20114;-63
2023/03/26 01:34:57;;;;;;;15.50;2.67;;;;;;;;;;5051590;28;20041;-63
2023/03/26 01:37:35;;;;;;;8.23;2.67;;;;;;;;;;5050993;28;20423;-63
2023/03/26 01:40:05;;;;;;;9.03;2.93;;;;;;;;;;5051365;28;20132;-63
2023/03/26 01:42:34;;;;;;;11.30;2.50;;;;;;;;;;5051421;28;20041;-64
2023/03/26 01:45:07;;;;;;;7.73;2.80;;;;;;;;;;5051480;28;20131;-63
2023/03/26 01:47:34;;;;;;;16.20;2.67;;;;;;;;;;5051302;28;20053;-64
2023/03/26 01:50:00;;;;;;;16.80;2.93;;;;;;;;;;5051283;28;20668;-63
2023/03/26 01:52:26;;;;;;;12.77;2.57;;;;;;;;;;5049335;28;20235;-64
2023/03/26 01:54:56;;;;;;;15.23;3.23;;;;;;;;;;5051163;28;20132;-64
2023/03/26 01:57:29;;;;;;;7.17;2.80;;;;;;;;;;5050273;28;20041;-63
2023/03/26 02:00:10;;;;;;;18.27;3.47;;;;;;;;;;5051127;28;20495;-64
2023/03/26 02:02:42;;;;;;;11.43;2.60;;;;;;;;;;5051117;28;20139;-64
2023/03/26 02:05:15;;;;;;;13.20;2.70;;;;;;;;;;5049708;28;20499;-64
2023/03/26 02:07:44;;;;;;;16.03;2.70;;;;;;;;;;5051149;28;20048;-64
2023/03/26 02:10:16;;;;;;;10.17;2.83;;;;;;;;;;5050991;28;20090;-63
2023/03/26 02:12:42;;;;;;;15.40;3.13;;;;;;;;;;5050748;28;20052;-64
2023/03/26 02:15:09;;;;;;;14.37;3.00;;;;;;;;;;5051023;28;20056;-63
2023/03/26 02:17:38;;;;;;;12.97;3.37;;;;;;;;;;5050221;28;20068;-63
2023/03/26 02:20:05;;;;;;;12.83;2.70;;;;;;;;;;5050686;28;20049;-63
2023/03/26 02:22:31;;;;;;;7.00;2.60;;;;;;;;;;5050474;28;20483;-64
2023/03/26 02:24:57;;;;;;;12.60;3.23;;;;;;;;;;5050648;28;20041;-64
2023/03/26 02:27:23;;;;;;;15.23;4.20;;;;;;;;;;5050335;28;20507;-63
2023/03/26 02:29:49;;;;;;;17.53;4.00;;;;;;;;;;5050071;28;20124;-63
2023/03/26 02:32:18;;;;;;;12.10;3.53;;;;;;;;;;5050542;28;20061;-63
2023/03/26 02:34:44;;;;;;;17.50;3.90;;;;;;;;;;5050632;28;20052;-63
2023/03/26 02:37:10;;;;;;;23.17;4.30;;;;;;;;;;5050154;28;20111;-64
2023/03/26 02:39:36;;;;;;;13.50;3.90;;;;;;;;;;5050205;28;20114;-63
2023/03/26 02:42:02;;;;;;;14.00;3.37;;;;;;;;;;5050137;28;20052;-63
2023/03/26 02:44:29;;;;;;;14.30;4.00;;;;;;;;;;5050231;28;20049;-63
2023/03/26 02:46:55;;;;;;;11.57;4.20;;;;;;;;;;5050110;28;20049;-63
2023/03/26 02:49:21;;;;;;;13.70;3.90;;;;;;;;;;5050275;28;20473;-63
2023/03/26 02:51:47;;;;;;;15.13;5.43;;;;;;;;;;5049816;28;20056;-63
2023/03/26 02:54:15;;;;;;;18.37;4.80;;;;;;;;;;5050021;28;20043;-63
2023/03/26 02:56:41;;;;;;;17.63;4.53;;;;;;;;;;5049380;28;20652;-63
2023/03/26 02:59:07;;;;;;;16.03;5.33;;;;;;;;;;5049915;28;20045;-63
2023/03/26 03:01:33;;;;;;;13.80;4.17;;;;;;;;;;5049436;28;20056;-64
2023/03/26 03:04:00;;;;;;;12.10;4.50;;;;;;;;;;5049764;28;20120;-64
2023/03/26 03:06:29;;;;;;;12.93;4.17;;;;;;;;;;5049762;28;20378;-63
2023/03/26 03:08:55;;;;;;;12.13;4.10;;;;;;;;;;5049795;28;20072;-64
2023/03/26 03:11:23;;;;;;;16.47;4.50;;;;;;;;;;5049494;28;20045;-64
2023/03/26 03:13:50;;;;;;;19.47;5.10;;;;;;;;;;5049331;28;20056;-63
2023/03/26 03:16:16;;;;;;;14.50;4.60;;;;;;;;;;5049592;28;20056;-63
2023/03/26 03:18:43;;;;;;;16.00;4.93;;;;;;;;;;5049072;28;20044;-63
2023/03/26 03:21:09;;;;;;;18.03;5.07;;;;;;;;;;5048223;28;20127;-63
2023/03/26 03:23:35;;;;;;;19.10;4.97;;;;;;;;;;5049184;28;20037;-63
2023/03/26 03:26:01;;;;;;;13.33;4.87;;;;;;;;;;5049471;28;20056;-63
2023/03/26 03:28:27;;;;;;;17.40;5.07;;;;;;;;;;5049001;28;20109;-63
2023/03/26 03:30:56;;;;;;;23.43;6.17;;;;;;;;;;5049094;28;20411;-63
2023/03/26 03:33:22;;;;;;;21.60;6.07;;;;;;;;;;5047989;28;20044;-63
2023/03/26 03:35:49;;;;;;;19.67;6.77;;;;;;;;;;5049045;28;20168;-63
2023/03/26 03:38:16;;;;;;;12.83;6.63;;;;;;;;;;5049318;28;20056;-63
2023/03/26 03:40:42;;;;;;;23.20;6.73;;;;;;;;;;5048795;28;20045;-63
2023/03/26 03:43:08;;;;;;;21.37;6.17;;;;;;;;;;5048925;28;20045;-63
2023/03/26 03:45:34;;;;;;;20.97;6.07;;;;;;;;;;5049110;28;20141;-63
2023/03/26 03:48:00;;;;;;;26.67;6.17;;;;;;;;;;5049246;28;20041;-64
2023/03/26 03:50:26;;;;;;;18.60;5.87;;;;;;;;;;5048854;28;20803;-63
2023/03/26 03:52:52;;;;;;;20.57;6.50;;;;;;;;;;5048412;28;20561;-63
2023/03/26 03:55:18;;;;;;;26.73;7.33;;;;;;;;;;5049160;28;20076;-63
2023/03/26 03:57:45;;;;;;;21.03;6.13;;;;;;;;;;5048854;28;20084;-63
2023/03/26 04:00:11;;;;;;;23.03;7.13;;;;;;;;;;5048846;28;20059;-63
2023/03/26 04:02:41;;;;;;;22.47;7.67;;;;;;;;;;5048915;28;20092;-64
2023/03/26 04:05:07;;;;;;;23.93;6.43;;;;;;;;;;5048791;28;20045;-63
2023/03/26 04:07:34;;;;;;;18.17;6.20;;;;;;;;;;5048524;28;20075;-64
2023/03/26 04:10:03;;;;;;;20.97;5.63;;;;;;;;;;5048820;28;20037;-63
2023/03/26 04:12:30;;;;;;;24.47;6.17;;;;;;;;;;5048751;28;20049;-63
2023/03/26 04:14:56;;;;;;;24.60;5.83;;;;;;;;;;5048813;28;20111;-63
2023/03/26 04:17:22;;;;;;;15.73;5.70;;;;;;;;;;5048750;28;20935;-63
2023/03/26 04:19:51;;;;;;;17.87;5.23;;;;;;;;;;5048640;28;20120;-63
2023/03/26 04:22:18;;;;;;;16.83;5.67;;;;;;;;;;5047760;28;20127;-63
2023/03/26 04:24:44;;;;;;;21.30;7.00;;;;;;;;;;5048679;28;20132;-63
2023/03/26 04:27:12;;;;;;;21.50;5.77;;;;;;;;;;5048299;28;20048;-64
2023/03/26 04:29:41;;;;;;;25.17;7.73;;;;;;;;;;5050230;28;20184;-63
2023/03/26 04:32:11;;;;;;;19.63;6.70;;;;;;;;;;5050759;28;20052;-63
2023/03/26 04:34:37;;;;;;;24.93;5.97;;;;;;;;;;5052758;28;20041;-63
2023/03/26 04:37:04;;;;;;;19.37;6.50;;;;;;;;;;5052396;28;20068;-63
2023/03/26 04:39:32;;;;;;;25.20;7.63;;;;;;;;;;5052054;28;20068;-63
2023/03/26 04:41:59;;;;;;;27.37;7.47;;;;;;;;;;5050876;28;20558;-63
2023/03/26 04:44:25;;;;;;;21.90;6.77;;;;;;;;;;5052471;28;21327;-63
2023/03/26 04:46:51;;;;;;;21.27;7.77;;;;;;;;;;5052626;28;20084;-63
2023/03/26 04:49:18;;;;;;;23.20;7.30;;;;;;;;;;5052702;28;20081;-63
2023/03/26 04:51:45;;;;;;;28.53;9.23;;;;;;;;;;5052379;28;20049;-63
2023/03/26 04:54:13;;;;;;;32.77;8.47;;;;;;;;;;5052469;28;20132;-63
2023/03/26 04:56:58;;;;;;;24.90;7.17;;;;;;;;;;5052087;28;20590;-63
2023/03/26 04:59:28;;;;;;;28.53;8.17;;;;;;;;;;5052577;28;20637;-64
2023/03/26 05:01:55;;;;;;;22.60;7.73;;;;;;;;;;5052255;28;20106;-64
2023/03/26 05:04:22;;;;;;;28.67;7.53;;;;;;;;;;5051728;28;20049;-63
2023/03/26 05:06:48;;;;;;;24.03;6.93;;;;;;;;;;5052285;28;20071;-63
2023/03/26 05:09:14;;;;;;;20.17;7.37;;;;;;;;;;5051854;28;20076;-63
2023/03/26 05:11:40;;;;;;;20.70;6.83;;;;;;;;;;5052039;28;20083;-64
2023/03/26 05:14:06;;;;;;;24.27;7.63;;;;;;;;;;5052211;28;20056;-63
2023/03/26 05:16:33;;;;;;;28.10;7.57;;;;;;;;;;5051368;28;20410;-64
2023/03/26 05:18:59;;;;;;;15.37;6.80;;;;;;;;;;5051847;28;20049;-64
2023/03/26 05:21:25;;;;;;;29.77;8.33;;;;;;;;;;5051185;28;20103;-63
2023/03/26 05:23:51;;;;;;;28.83;7.90;;;;;;;;;;5050385;28;20057;-63
2023/03/26 05:26:17;;;;;;;24.53;7.97;;;;;;;;;;5051444;28;20061;-64
2023/03/26 05:28:43;;;;;;;19.70;7.43;;;;;;;;;;5050150;28;20045;-63
2023/03/26 05:31:10;;;;;;;27.03;7.63;;;;;;;;;;5051974;28;20135;-63
2023/03/26 05:33:36;;;;;;;25.70;8.67;;;;;;;;;;5051479;28;20912;-63
2023/03/26 05:36:14;;;;;;;23.17;7.90;;;;;;;;;;5051574;28;20040;-63
2023/03/26 05:38:40;;;;;;;23.63;6.50;;;;;;;;;;5051126;28;20044;-64
2023/03/26 05:41:07;;;;;;;22.03;6.73;;;;;;;;;;5050975;28;20540;-64
2023/03/26 05:43:34;;;;;;;23.27;6.67;;;;;;;;;;5051378;28;20052;-64
2023/03/26 05:46:00;;;;;;;24.27;6.00;;;;;;;;;;5051110;28;20077;-64
2023/03/26 05:48:26;;;;;;;27.10;8.23;;;;;;;;;;5051544;28;20073;-63
2023/03/26 05:50:53;;;;;;;24.67;6.90;;;;;;;;;;5050678;28;20040;-64
2023/03/26 05:53:19;;;;;;;26.53;7.20;;;;;;;;;;5050893;28;20048;-63
2023/03/26 05:55:49;;;;;;;22.43;7.23;;;;;;;;;;5050923;28;20048;-63
2023/03/26 05:58:15;;;;;;;18.90;7.47;;;;;;;;;;5032674;28;20048;-63
2023/03/26 06:00:42;;;;;;;22.93;6.87;;;;;;;;;;5050995;28;20044;-64
2023/03/26 06:03:11;;;;;;;23.80;6.90;;;;;;;;;;5050793;28;20438;-64
2023/03/26 06:05:38;;;;;;;20.57;6.37;;;;;;;;;;5051082;28;20356;-63
2023/03/26 06:08:05;;;;;;;22.97;6.83;;;;;;;;;;5050466;28;20539;-64
2023/03/26 06:10:31;;;;;;;18.70;6.57;;;;;;;;;;5050484;28;20045;-63
2023/03/26 06:12:57;;;;;;;24.43;7.03;;;;;;;;;;5050545;28;20037;-64
2023/03/26 06:15:23;;;;;;;20.03;6.03;;;;;;;;;;5050519;28;20048;-64
2023/03/26 06:17:49;;;;;;;21.00;7.23;;;;;;;;;;5050659;28;20053;-64
2023/03/26 06:20:15;;;;;;;23.07;7.57;;;;;;;;;;5050534;28;20088;-64
2023/03/26 06:22:41;;;;;;;21.77;6.70;;;;;;;;;;5050247;28;20424;-64
2023/03/26 06:25:07;;;;;;;24.37;6.67;;;;;;;;;;5050243;28;20847;-63
2023/03/26 06:27:34;;;;;;;18.57;7.00;;;;;;;;;;5050304;28;20056;-64
2023/03/26 06:30:00;;;;;;;18.73;6.77;;;;;;;;;;5050287;28;20049;-64
2023/03/26 06:32:26;;;;;;;24.57;7.37;;;;;;;;;;5049795;28;20140;-64
2023/03/26 06:34:52;;;;;;;23.40;6.40;;;;;;;;;;5050150;28;20098;-64
2023/03/26 06:37:18;;;;;;;30.50;7.30;;;;;;;;;;5050620;28;20045;-64
2023/03/26 06:39:44;;;;;;;27.73;7.17;;;;;;;;;;5049963;28;20517;-64
2023/03/26 06:42:10;;;;;;;22.30;7.40;;;;;;;;;;5049785;28;20544;-64
2023/03/26 06:44:36;;;;;;;17.27;6.80;;;;;;;;;;5050345;28;20139;-64
2023/03/26 06:47:02;;;;;;;27.30;7.40;;;;;;;;;;5037694;28;20057;-64
2023/03/26 06:49:29;;;;;;;24.23;6.70;;;;;;;;;;5040476;28;20045;-64
2023/03/26 06:51:56;;;;;;;24.40;6.53;;;;;;;;;;5055331;28;20924;-64
2023/03/26 06:54:22;;;;;;;27.20;6.83;;;;;;;;;;5047227;28;20049;-64
2023/03/26 06:56:48;;;;;;;25.87;6.03;;;;;;;;;;5049824;28;20854;-64
2023/03/26 06:59:14;;;;;;;23.97;6.57;;;;;;;;;;5042132;28;20091;-64
2023/03/26 07:01:40;;;;;;;22.57;5.73;;;;;;;;;;5043534;28;20054;-64
2023/03/26 07:04:06;;;;;;;26.20;6.93;;;;;;;;;;5038957;28;20037;-64
2023/03/26 07:06:32;;;;;;;22.73;5.27;;;;;;;;;;5041252;28;20742;-64
2023/03/26 07:08:58;;;;;;;33.23;6.00;;;;;;;;;;5037349;28;20041;-64
2023/03/26 07:11:25;;;;;;;28.43;6.80;;;;;;;;;;5034261;28;20042;-63
2023/03/26 07:13:52;;;;;;;23.37;5.53;;;;;;;;;;5044576;28;20059;-64
2023/03/26 07:16:18;;;;;;;22.40;4.10;;;;;;;;;;5029909;28;20389;-64
2023/03/26 07:18:44;;;;;;;17.83;3.93;;;;;;;;;;5029186;28;20045;-63
2023/03/26 07:21:10;;;;;;;28.50;4.37;;;;;;;;;;5029244;28;20045;-63
2023/03/26 07:23:36;;;;;;;14.40;4.27;;;;;;;;;;5028783;28;20451;-64
2023/03/26 07:26:12;;;;;;;25.97;4.13;;;;;;;;;;5028236;28;20132;-64
2023/03/26 07:28:45;;;;;;;27.40;4.77;;;;;;;;;;5028332;28;20516;-65
2023/03/26 07:31:19;;;;;;;23.75;4.28;;;;;;;;;;5028159;28;20049;-63
2023/03/26 07:33:50;;;;;;;18.73;3.73;;;;;;;;;;5042492;28;20098;-64
2023/03/26 07:36:16;;;;;;;15.10;4.07;;;;;;;;;;5035945;28;20504;-63
2023/03/26 07:38:49;;;;;;;24.80;3.50;;;;;;;;;;5039067;28;20426;-63
2023/03/26 07:41:31;;;;;;;18.97;2.80;;;;;;;;;;5047644;28;20056;-63
2023/03/26 07:44:04;;;;;;;26.43;5.00;;;;;;;;;;5047326;28;20060;-63
2023/03/26 07:46:32;;;;;;;23.90;3.90;;;;;;;;;;5047163;28;20132;-64
2023/03/26 07:49:00;;;;;;;19.13;4.03;;;;;;;;;;5046768;28;20077;-65
2023/03/26 07:51:27;;;;;;;28.77;4.60;;;;;;;;;;5062563;28;20047;-64
2023/03/26 07:53:53;;;;;;;17.47;4.20;;;;;;;;;;5046295;28;20041;-62
2023/03/26 07:56:20;;;;;;;22.70;3.30;;;;;;;;;;5045771;28;20057;-64
2023/03/26 07:58:46;;;;;;;24.37;3.30;;;;;;;;;;5047515;28;20499;-62
2023/03/26 08:01:21;;;;;;;18.40;3.43;;;;;;;;;;5047578;28;20049;-63
2023/03/26 08:03:53;;;;;;;19.53;4.43;;;;;;;;;;5047082;28;20506;-62
2023/03/26 08:06:27;;;;;;;18.40;4.30;;;;;;;;;;5046940;28;20053;-62
2023/03/26 08:08:59;;;;;;;18.30;3.53;;;;;;;;;;5046512;28;20045;-62
2023/03/26 08:11:47;;;;;;;13.03;3.33;;;;;;;;;;5047171;28;20801;-63
2023/03/26 08:14:16;;;;;;;17.47;3.97;;;;;;;;;;5045839;28;20070;-62
2023/03/26 08:16:48;;;;;;;23.60;3.47;;;;;;;;;;5047572;28;20051;-62
2023/03/26 08:19:25;;;;;;;17.70;3.23;;;;;;;;;;5047322;28;20104;-62
2023/03/26 08:22:01;;;;;;;21.00;4.27;;;;;;;;;;5044153;28;20045;-63
2023/03/26 08:24:40;;;;;;;15.67;3.43;;;;;;;;;;5037778;28;20124;-62
2023/03/26 08:27:12;;;;;;;24.20;3.67;;;;;;;;;;5038932;28;20114;-62
2023/03/26 08:29:38;;;;;;;21.40;3.60;;;;;;;;;;5037427;28;20048;-62
2023/03/26 08:32:08;;;;;;;22.73;4.43;;;;;;;;;;5034533;28;20048;-62
2023/03/26 08:34:34;;;;;;;17.60;4.03;;;;;;;;;;5037325;28;20049;-63
2023/03/26 08:37:01;;;;;;;18.03;3.40;;;;;;;;;;5035536;28;20068;-63
2023/03/26 08:39:27;;;;;;;18.17;3.13;;;;;;;;;;5036026;28;20057;-63
2023/03/26 08:42:12;;;;;;;23.90;4.30;;;;;;;;;;5036582;28;20385;-62
2023/03/26 08:44:46;;;;;;;21.07;3.53;;;;;;;;;;5037107;28;20045;-62
2023/03/26 08:47:15;;;;;;;23.37;3.17;;;;;;;;;;5035467;28;20053;-62
2023/03/26 08:49:48;;;;;;;18.97;3.50;;;;;;;;;;5037221;28;20057;-62
2023/03/26 08:52:34;;;;;;;22.83;3.95;;;;;;;;;;5031664;28;20057;-62
2023/03/26 08:55:03;;;;;;;22.07;4.07;;;;;;;;;;5027950;28;20041;-62
2023/03/26 08:57:39;;;;;;;18.27;3.00;;;;;;;;;;5027006;28;20134;-62
2023/03/26 09:00:12;;;;;;;11.80;2.83;;;;;;;;;;5027900;28;20041;-62
2023/03/26 09:02:57;;;;;;;23.67;3.85;;;;;;;;;;5027646;28;20475;-62
2023/03/26 09:05:41;;;;;;;19.37;3.73;;;;;;;;;;5026957;28;20057;-62
2023/03/26 09:08:07;;;;;;;25.30;4.03;;;;;;;;;;5027810;28;20072;-62
2023/03/26 09:10:44;;;;;;;18.67;3.10;;;;;;;;;;5027459;28;20053;-62
2023/03/26 09:13:11;;;;;;;18.40;3.03;;;;;;;;;;5027869;28;20510;-63
2023/03/26 09:15:40;;;;;;;19.23;3.60;;;;;;;;;;5029496;28;20049;-62
2023/03/26 09:18:26;;;;;;;21.70;3.83;;;;;;;;;;5030966;28;20053;-62
2023/03/26 09:21:11;;;;;;;16.83;2.90;;;;;;;;;;5029558;28;20140;-62
2023/03/26 09:23:56;;;;;;;13.37;3.20;;;;;;;;;;5031250;28;20119;-62
2023/03/26 09:26:40;;;;;;;18.80;3.70;;;;;;;;;;5030688;28;20511;-62
2023/03/26 09:29:25;;;;;;;17.93;3.53;;;;;;;;;;5030526;28;20504;-62
2023/03/26 09:32:02;;;;;;;23.27;3.17;;;;;;;;;;5030562;28;20119;-62
2023/03/26 09:34:52;;;;;;;16.97;2.77;;;;;;;;;;5029658;28;20073;-62
2023/03/26 09:37:28;;;;;;;17.47;3.63;;;;;;;;;;5029201;28;20868;-63
2023/03/26 09:40:13;;;;;;;24.00;4.17;;;;;;;;;;5031152;28;20052;-62
2023/03/26 09:42:39;;;;;;;21.83;3.23;;;;;;;;;;5047599;28;20063;-63
2023/03/26 09:45:19;;;;;;;21.37;3.67;;;;;;;;;;5044602;28;20048;-63
2023/03/26 09:48:04;;;;;;;17.83;4.30;;;;;;;;;;5041681;28;20049;-63
2023/03/26 09:50:40;;;;;;;17.43;2.97;;;;;;;;;;5043134;28;20063;-63
2023/03/26 09:53:08;;;;;;;15.73;3.40;;;;;;;;;;5051110;28;20052;-62
2023/03/26 09:55:44;;;;;;;15.40;2.87;;;;;;;;;;5050728;28;20053;-62
2023/03/26 09:58:13;;;;;;;18.77;3.47;;;;;;;;;;5041436;28;20049;-63
2023/03/26 10:01:02;;;;;;;18.40;3.47;;;;;;;;;;5047825;28;20430;-63
2023/03/26 10:03:47;;;;;;;24.00;3.80;;;;;;;;;;5051325;28;20131;-63
2023/03/26 10:06:31;;;;;;;20.47;3.10;;;;;;;;;;5050724;28;20807;-63
2023/03/26 10:09:00;;;;;;;15.77;3.30;;;;;;;;;;5050811;28;20063;-63
2023/03/26 10:11:32;;;;;;;12.30;2.70;;;;;;;;;;5050868;28;20057;-63
2023/03/26 10:14:13;;;;;;;22.10;3.77;;;;;;;;;;5050582;28;20041;-63
2023/03/26 10:17:06;;;;;;;24.17;3.63;;;;;;;;;;5050580;28;20156;-63
2023/03/26 10:19:35;;;;;;;16.50;3.10;;;;;;;;;;5049515;28;20511;-63
2023/03/26 10:22:16;;;;;;;16.20;3.30;;;;;;;;;;5050386;28;20542;-63
2023/03/26 10:25:00;;;;;;;19.10;3.43;;;;;;;;;;5050841;28;20053;-63
2023/03/26 10:27:59;;;;;;;19.60;3.63;;;;;;;;;;5048032;28;20061;-63
2023/03/26 10:30:25;;;;;;;20.63;4.30;;;;;;;;;;5038003;28;20143;-62
2023/03/26 10:33:10;;;;;;;20.37;3.47;;;;;;;;;;5048723;28;20045;-63
2023/03/26 10:35:44;;;;;;;14.63;3.07;;;;;;;;;;5050009;28;20049;-63
2023/03/26 10:38:29;;;;;;;12.63;3.70;;;;;;;;;;5048979;28;20055;-63
2023/03/26 10:41:13;;;;;;;14.23;4.13;;;;;;;;;;5049037;28;20045;-62
2023/03/26 10:43:48;;;;;;;16.23;3.27;;;;;;;;;;5049908;28;20076;-62
2023/03/26 10:46:17;;;;;;;13.53;3.03;;;;;;;;;;5049851;28;20095;-62
2023/03/26 10:48:46;;;;;;;13.37;2.30;;;;;;;;;;5049252;28;20053;-63
2023/03/26 10:51:33;;;;;;;13.00;3.23;;;;;;;;;;5047037;28;20040;-62
2023/03/26 10:54:19;;;;;;;10.97;2.10;;;;;;;;;;5043925;28;20511;-62
2023/03/26 10:56:46;;;;;;;12.17;2.77;;;;;;;;;;5043758;28;20122;-62
2023/03/26 10:59:13;;;;;;;12.33;2.33;;;;;;;;;;5048257;28;20139;-62
2023/03/26 11:02:03;;;;;;;14.17;2.70;;;;;;;;;;5048042;28;20635;-62
2023/03/26 11:04:35;;;;;;;12.93;2.27;;;;;;;;;;5045457;28;20499;-62
2023/03/26 11:07:02;;;;;;;14.87;2.30;;;;;;;;;;5049813;28;20049;-62
2023/03/26 11:09:47;;;;;;;14.00;2.83;;;;;;;;;;5049205;28;20052;-62
2023/03/26 11:12:19;;;;;;;9.23;2.03;;;;;;;;;;5049402;28;20060;-62
2023/03/26 11:14:47;;;;;;;13.17;2.50;;;;;;;;;;5049405;28;20427;-62
2023/03/26 11:17:17;;;;;;;14.93;2.40;;;;;;;;;;5049083;28;20132;-62
2023/03/26 11:19:55;;;;;;;11.70;2.23;;;;;;;;;;5049338;28;20388;-61
2023/03/26 11:22:28;;;;;;;10.50;3.13;;;;;;;;;;5049149;28;20107;-61
2023/03/26 11:25:04;;;;;;;13.63;2.00;;;;;;;;;;5048845;28;20040;-61
2023/03/26 11:27:33;;;;;;;9.63;2.17;;;;;;;;;;5049134;28;20167;-61
2023/03/26 11:30:18;;;;;;;12.77;3.30;;;;;;;;;;5048187;28;20049;-62
2023/03/26 11:32:58;;;;;;;13.50;2.03;;;;;;;;;;5048812;28;20763;-61
2023/03/26 11:35:31;;;;;;;14.30;2.47;;;;;;;;;;5048951;28;20048;-61
2023/03/26 11:38:01;;;;;;;10.35;3.10;;;;;;;;;;5048254;28;20049;-62
2023/03/26 11:40:27;;;;;;;14.33;2.63;;;;;;;;;;5048894;28;20568;-62
2023/03/26 11:42:56;;;;;;;11.13;2.60;;;;;;;;;;5048697;28;20098;-62
2023/03/26 11:45:25;;;;;;;13.77;2.57;;;;;;;;;;5048914;28;20056;-61
2023/03/26 11:48:03;;;;;;;8.43;2.00;;;;;;;;;;5048338;28;20044;-62
2023/03/26 11:50:32;;;;;;;12.37;2.60;;;;;;;;;;5048742;28;20056;-61
2023/03/26 11:53:00;;;;;;;9.00;2.63;;;;;;;;;;5048407;28;20054;-61
2023/03/26 11:55:26;;;;;;;8.23;1.80;;;;;;;;;;5048220;28;20102;-61
2023/03/26 11:57:57;;;;;;;9.87;2.00;;;;;;;;;;5048301;28;20048;-61
2023/03/26 12:00:26;;;;;;;11.50;2.47;;;;;;;;;;5048720;28;20067;-61
2023/03/26 12:02:55;;;;;;;11.33;2.00;;;;;;;;;;5048644;28;20491;-61
2023/03/26 12:05:25;;;;;;;12.13;2.17;;;;;;;;;;5048914;28;20094;-61
2023/03/26 12:08:16;;;;;;;14.10;2.70;;;;;;;;;;5048388;28;20110;-61
2023/03/26 12:10:43;;;;;;;16.07;3.17;;;;;;;;;;5048211;28;20049;-61
2023/03/26 12:13:21;;;;;;;12.27;2.60;;;;;;;;;;5048158;28;20064;-61
2023/03/26 12:15:47;;;;;;;12.40;2.50;;;;;;;;;;5046989;28;20048;-61
2023/03/26 12:18:23;;;;;;;10.63;1.93;;;;;;;;;;5040992;28;20037;-61
2023/03/26 12:21:01;;;;;;;14.57;2.10;;;;;;;;;;5028418;28;20053;-61
2023/03/26 12:23:35;;;;;;;10.63;2.60;;;;;;;;;;5028982;28;20053;-61
2023/03/26 12:26:06;;;;;;;9.20;2.20;;;;;;;;;;5028081;28;20480;-61
2023/03/26 12:28:32;;;;;;;10.50;2.10;;;;;;;;;;5028637;28;20049;-63
2023/03/26 12:31:01;;;;;;;8.20;2.37;;;;;;;;;;5044801;28;20389;-61
2023/03/26 12:33:34;;;;;;;12.23;2.67;;;;;;;;;;5045591;28;20072;-62
2023/03/26 12:36:00;;;;;;;;;;;;;;;;;;5039340;28;20037;-61
2023/03/26 12:38:34;;;;;;;11.20;2.23;;;;;;;;;;5039254;28;20389;-61
2023/03/26 12:41:03;;;;;;;10.90;2.00;;;;;;;;;;5048502;28;20037;-61
2023/03/26 12:43:38;;;;;;;12.00;3.20;;;;;;;;;;5048323;28;20091;-61
2023/03/26 12:46:22;;;;;;;13.87;2.93;;;;;;;;;;5048782;28;20437;-61
2023/03/26 12:48:50;;;;;;;10.80;2.40;;;;;;;;;;5048538;28;20053;-61
2023/03/26 12:51:24;;;;;;;12.83;2.80;;;;;;;;;;5050163;28;20059;-61
2023/03/26 12:53:53;;;;;;;12.73;2.93;;;;;;;;;;5052148;28;20041;-61
2023/03/26 12:56:22;;;;;;;13.23;2.87;;;;;;;;;;5052065;28;20076;-61
2023/03/26 12:59:00;;;;;;;12.70;2.73;;;;;;;;;;5052273;28;20041;-62
2023/03/26 13:01:33;;;;;;;8.87;2.27;;;;;;;;;;5049078;28;20060;-61
2023/03/26 13:04:13;;;;;;;11.27;2.22;;;;;;;;;;5036700;28;20081;-61
2023/03/26 13:06:49;;;;;;;10.37;2.47;;;;;;;;;;5031646;28;20053;-61
2023/03/26 13:09:22;;;;;;;12.37;2.20;;;;;;;;;;5042365;28;20049;-61
2023/03/26 13:12:05;;;;;;;12.73;2.27;;;;;;;;;;5042406;28;20052;-61
2023/03/26 13:14:43;;;;;;;7.07;2.07;;;;;;;;;;5042650;28;20049;-61
2023/03/26 13:17:47;;;;;;;12.27;2.60;;;;;;;;;;5040826;28;20129;-60
2023/03/26 13:20:21;;;;;;;13.67;2.40;;;;;;;;;;5045306;28;20535;-61
2023/03/26 13:22:59;;;;;;;9.77;2.60;;;;;;;;;;5045691;28;20191;-60
2023/03/26 13:25:25;;;;;;;10.30;2.60;;;;;;;;;;5036228;28;20052;-60
2023/03/26 13:27:54;;;;;;;12.00;2.50;;;;;;;;;;5046128;28;20057;-60
2023/03/26 13:30:33;;;;;;;11.90;2.27;;;;;;;;;;5037358;28;20041;-64
2023/03/26 13:33:14;;;;;;;12.30;2.13;;;;;;;;;;5046603;28;20056;-62
2023/03/26 13:35:43;;;;;;;14.50;2.60;;;;;;;;;;5039919;28;20049;-60
2023/03/26 13:38:32;;;;;;;13.60;2.60;;;;;;;;;;5045922;28;20049;-60
2023/03/26 13:41:04;;;;;;;15.57;2.53;;;;;;;;;;5042804;28;20048;-60
2023/03/26 13:43:41;;;;;;;12.93;2.47;;;;;;;;;;5043742;28;20041;-60
2023/03/26 13:46:12;;;;;;;9.63;1.93;;;;;;;;;;5039807;28;20045;-60
2023/03/26 13:48:51;;;;;;;10.53;2.00;;;;;;;;;;5048921;28;20090;-62
2023/03/26 13:51:17;;;;;;;10.83;2.30;;;;;;;;;;5050529;28;20505;-60
2023/03/26 13:53:52;;;;;;;12.67;2.43;;;;;;;;;;5049923;28;20408;-60
2023/03/26 13:56:23;;;;;;;11.33;2.27;;;;;;;;;;5050524;28;20052;-61
2023/03/26 13:58:56;;;;;;;9.43;2.47;;;;;;;;;;5050701;28;20419;-61
2023/03/26 14:01:39;;;;;;;12.40;2.10;;;;;;;;;;5050548;28;20049;-61
2023/03/26 14:04:06;;;;;;;;;;;;;;;;;;5051335;28;20056;-61
2023/03/26 14:06:45;;;;;;;9.77;2.60;;;;;;;;;;5044423;28;19920;-61
2023/03/26 14:09:27;;;;;;;12.17;2.43;;;;;;;;;;5037800;28;20068;-62
2023/03/26 14:11:55;;;;;;;12.17;2.40;;;;;;;;;;5041583;28;20048;-61
2023/03/26 14:14:33;;;;;;;7.47;1.77;;;;;;;;;;5042076;28;20052;-61
2023/03/26 14:17:04;;;;;;;11.30;2.60;;;;;;;;;;5036933;28;20484;-61
2023/03/26 14:19:36;;;;;;;7.90;1.70;;;;;;;;;;5035981;28;20053;-61
2023/03/26 14:22:17;;;;;;;7.37;1.57;;;;;;;;;;5055286;28;20037;-61
2023/03/26 14:24:46;;;;;;;10.43;1.80;;;;;;;;;;5040688;28;20518;-61
2023/03/26 14:27:17;;;;;;;10.47;2.20;;;;;;;;;;5040625;28;20049;-61
2023/03/26 14:30:06;;;;;;;11.67;2.27;;;;;;;;;;5037993;28;20041;-61
2023/03/26 14:32:49;;;;;;;10.30;2.40;;;;;;;;;;5031874;28;20187;-60
2023/03/26 14:35:33;;;;;;;8.95;1.92;;;;;;;;;;5050106;28;20128;-61
2023/03/26 14:38:15;;;;;;;10.60;2.20;;;;;;;;;;5048650;28;20410;-61
2023/03/26 14:40:47;;;;;;;12.27;3.07;;;;;;;;;;5050064;28;20103;-61
2023/03/26 14:43:16;;;;;;;9.37;2.50;;;;;;;;;;5039487;28;20691;-62
2023/03/26 14:45:55;;;;;;;8.07;1.90;;;;;;;;;;5037032;28;20379;-59
2023/03/26 14:48:42;;;;;;;11.60;2.03;;;;;;;;;;5045227;28;20043;-59
2023/03/26 14:51:27;;;;;;;7.97;1.70;;;;;;;;;;5043121;28;20898;-60
2023/03/26 14:53:59;;;;;;;6.73;1.67;;;;;;;;;;5040374;28;20044;-61